createdAt,value
2023-05-09T00:01:46.597Z,18.86
2023-05-09T00:03:49.659Z,18.85
2023-05-09T00:05:51.529Z,18.83
2023-05-09T00:07:53.140Z,18.81
2023-05-09T00:09:59.686Z,18.79
2023-05-09T00:12:01.391Z,18.78
2023-05-09T00:14:03.315Z,18.77
2023-05-09T00:16:09.837Z,18.77
2023-05-09T00:18:11.425Z,18.75
2023-05-09T00:20:14.666Z,18.73
2023-05-09T00:22:21.461Z,18.71
2023-05-09T00:24:24.027Z,18.71
2023-05-09T00:26:26.283Z,18.70
2023-05-09T00:28:27.746Z,18.67
2023-05-09T00:30:29.327Z,18.66
2023-05-09T00:32:32.104Z,18.66
2023-05-09T00:34:33.560Z,18.64
2023-05-09T00:36:40.596Z,18.61
2023-05-09T00:38:42.104Z,18.58
2023-05-09T00:40:45.978Z,18.57
2023-05-09T00:42:47.888Z,18.55
2023-05-09T00:44:49.755Z,18.54
2023-05-09T00:46:51.243Z,18.53
2023-05-09T00:49:04.886Z,18.53
2023-05-09T00:51:07.388Z,18.51
2023-05-09T00:53:09.550Z,18.50
2023-05-09T00:55:11.778Z,18.48
2023-05-09T00:57:14.242Z,18.49
2023-05-09T00:59:17.563Z,18.47
2023-05-09T01:01:22.405Z,18.46
2023-05-09T01:03:28.619Z,18.46
2023-05-09T01:05:58.557Z,18.42
2023-05-09T01:08:21.578Z,18.39
2023-05-09T01:10:39.470Z,18.36
2023-05-09T01:12:58.827Z,18.35
2023-05-09T01:15:26.808Z,18.31
2023-05-09T01:17:43.964Z,18.31
2023-05-09T01:20:02.463Z,18.31
2023-05-09T01:22:08.847Z,18.30
2023-05-09T01:24:27.057Z,18.27
2023-05-09T01:26:45.325Z,18.27
2023-05-09T01:29:05.064Z,18.25
2023-05-09T01:31:09.729Z,18.23
2023-05-09T01:33:18.235Z,18.23
2023-05-09T01:35:23.774Z,18.23
2023-05-09T01:37:35.550Z,18.20
2023-05-09T01:39:41.351Z,18.20
2023-05-09T01:41:42.894Z,18.19
2023-05-09T01:43:47.229Z,18.19
2023-05-09T01:45:51.256Z,18.20
2023-05-09T01:47:53.987Z,18.19
2023-05-09T01:50:01.270Z,18.19
2023-05-09T01:52:11.287Z,18.18
2023-05-09T01:54:14.319Z,18.17
2023-05-09T01:56:17.225Z,18.17
2023-05-09T01:58:22.093Z,18.16
2023-05-09T02:00:27.965Z,18.16
2023-05-09T02:02:29.637Z,18.14
2023-05-09T02:04:32.796Z,18.13
2023-05-09T02:06:36.156Z,18.12
2023-05-09T02:08:39.845Z,18.11
2023-05-09T02:10:42.564Z,18.10
2023-05-09T02:12:46.412Z,18.11
2023-05-09T02:14:48.028Z,18.07
2023-05-09T02:16:50.257Z,18.07
2023-05-09T02:18:52.233Z,18.05
2023-05-09T02:20:53.783Z,18.02
2023-05-09T02:22:55.375Z,18.02
2023-05-09T02:24:57.234Z,18.03
2023-05-09T02:26:58.877Z,18.01
2023-05-09T02:29:02.617Z,18.01
2023-05-09T02:31:07.033Z,17.99
2023-05-09T02:33:11.759Z,18.00
2023-05-09T02:35:17.762Z,17.97
2023-05-09T02:37:21.347Z,17.97
2023-05-09T02:39:27.880Z,17.97
2023-05-09T02:41:31.123Z,17.95
2023-05-09T02:43:32.845Z,17.95
2023-05-09T02:45:34.598Z,17.95
2023-05-09T02:47:38.301Z,17.93
2023-05-09T02:49:40.339Z,17.93
2023-05-09T02:51:43.155Z,17.91
2023-05-09T02:53:44.981Z,17.90
2023-05-09T02:55:47.204Z,17.89
2023-05-09T02:57:51.989Z,17.86
2023-05-09T03:00:04.613Z,17.85
2023-05-09T03:02:06.526Z,17.84
2023-05-09T03:04:08.344Z,17.84
2023-05-09T03:06:14.161Z,17.82
2023-05-09T03:08:16.263Z,17.82
2023-05-09T03:10:18.759Z,17.81
2023-05-09T03:12:24.963Z,17.79
2023-05-09T03:14:29.373Z,17.77
2023-05-09T03:16:31.267Z,17.76
2023-05-09T03:18:34.044Z,17.74
2023-05-09T03:20:36.369Z,17.72
2023-05-09T03:22:38.633Z,17.72
2023-05-09T03:24:43.768Z,17.72
2023-05-09T03:26:45.369Z,17.71
2023-05-09T03:28:47.170Z,17.70
2023-05-09T03:30:50.327Z,17.70
2023-05-09T03:32:54.708Z,17.68
2023-05-09T03:34:57.250Z,17.67
2023-05-09T03:37:01.570Z,17.68
2023-05-09T03:39:04.225Z,17.66
2023-05-09T03:41:05.796Z,17.64
2023-05-09T03:43:09.208Z,17.62
2023-05-09T03:45:12.246Z,17.61
2023-05-09T03:47:14.179Z,17.60
2023-05-09T03:49:15.674Z,17.58
2023-05-09T03:51:18.402Z,17.57
2023-05-09T03:53:20.728Z,17.55
2023-05-09T03:55:27.531Z,17.53
2023-05-09T03:57:29.162Z,17.54
2023-05-09T03:59:32.213Z,17.53
2023-05-09T04:01:34.596Z,17.53
2023-05-09T04:03:38.261Z,17.52
2023-05-09T04:05:40.601Z,17.53
2023-05-09T04:07:47.544Z,17.52
2023-05-09T04:09:50.546Z,17.50
2023-05-09T04:11:52.231Z,17.52
2023-05-09T04:13:54.448Z,17.50
2023-05-09T04:16:01.874Z,17.50
2023-05-09T04:18:08.855Z,17.51
2023-05-09T04:20:11.588Z,17.50
2023-05-09T04:22:14.306Z,17.50
2023-05-09T04:24:16.106Z,17.50
2023-05-09T04:26:24.448Z,17.49
2023-05-09T04:28:28.276Z,17.50
2023-05-09T04:30:31.483Z,17.49
2023-05-09T04:32:33.671Z,17.48
2023-05-09T04:34:35.767Z,17.47
2023-05-09T04:36:43.522Z,17.48
2023-05-09T04:38:45.172Z,17.47
2023-05-09T04:40:49.942Z,17.48
2023-05-09T04:42:51.660Z,17.49
2023-05-09T04:44:55.925Z,17.49
2023-05-09T04:46:58.184Z,17.51
2023-05-09T04:48:59.712Z,17.52
2023-05-09T04:51:01.653Z,17.53
2023-05-09T04:53:03.263Z,17.54
2023-05-09T04:55:05.278Z,17.54
2023-05-09T04:57:18.038Z,17.55
2023-05-09T04:59:23.357Z,17.58
2023-05-09T05:01:26.615Z,17.58
2023-05-09T05:03:35.478Z,17.60
2023-05-09T05:05:37.993Z,17.62
2023-05-09T05:07:40.546Z,17.66
2023-05-09T05:09:42.608Z,17.69
2023-05-09T05:11:57.159Z,17.71
2023-05-09T05:14:00.565Z,17.72
2023-05-09T05:16:02.295Z,17.74
2023-05-09T05:18:04.234Z,17.78
2023-05-09T05:20:12.003Z,17.79
2023-05-09T05:22:18.467Z,17.85
2023-05-09T05:24:21.331Z,17.87
2023-05-09T05:26:28.380Z,17.89
2023-05-09T05:28:30.391Z,17.91
2023-05-09T05:30:35.459Z,17.93
2023-05-09T05:32:37.475Z,17.96
2023-05-09T05:34:39.689Z,17.99
2023-05-09T05:36:41.254Z,18.00
2023-05-09T05:38:42.884Z,18.01
2023-05-09T05:40:45.652Z,18.03
2023-05-09T05:42:47.336Z,18.07
2023-05-09T05:44:49.014Z,18.10
2023-05-09T05:46:54.914Z,18.12
2023-05-09T05:48:59.359Z,18.16
2023-05-09T05:51:01.334Z,18.22
2023-05-09T05:53:06.514Z,18.28
2023-05-09T05:55:12.133Z,18.35
2023-05-09T05:57:14.117Z,18.44
2023-05-09T05:59:25.046Z,18.53
2023-05-09T06:01:26.993Z,18.59
2023-05-09T06:03:33.670Z,18.66
2023-05-09T06:05:42.254Z,18.76
2023-05-09T06:07:46.961Z,18.82
2023-05-09T06:09:48.589Z,18.89
2023-05-09T06:11:50.339Z,18.93
2023-05-09T06:13:52.034Z,18.98
2023-05-09T06:16:04.702Z,19.03
2023-05-09T06:18:19.389Z,19.09
2023-05-09T06:20:22.028Z,19.15
2023-05-09T06:22:23.481Z,19.22
2023-05-09T06:24:35.302Z,19.26
2023-05-09T06:26:38.430Z,19.32
2023-05-09T06:28:39.914Z,19.40
2023-05-09T06:30:41.422Z,19.47
2023-05-09T06:32:43.017Z,19.56
2023-05-09T06:34:44.474Z,19.67
2023-05-09T06:36:45.976Z,19.78
2023-05-09T06:38:47.743Z,19.89
2023-05-09T06:40:51.641Z,19.98
2023-05-09T06:42:53.510Z,20.06
2023-05-09T06:44:55.631Z,20.13
2023-05-09T06:46:57.102Z,20.19
2023-05-09T06:48:59.340Z,20.24
2023-05-09T06:51:00.940Z,20.28
2023-05-09T06:53:02.538Z,20.32
2023-05-09T06:55:08.234Z,20.35
2023-05-09T06:57:09.748Z,20.38
2023-05-09T06:59:13.819Z,20.40
2023-05-09T07:01:15.422Z,20.43
2023-05-09T07:03:22.425Z,20.44
2023-05-09T07:05:23.937Z,20.46
2023-05-09T07:07:25.673Z,20.47
2023-05-09T07:09:28.697Z,20.49
2023-05-09T07:11:38.089Z,20.53
2023-05-09T07:13:39.544Z,20.59
2023-05-09T07:15:42.944Z,20.65
2023-05-09T07:17:44.906Z,20.74
2023-05-09T07:19:46.669Z,20.83
2023-05-09T07:21:48.398Z,20.93
2023-05-09T07:23:51.715Z,21.06
2023-05-09T07:25:57.638Z,21.19
2023-05-09T07:28:02.151Z,21.34
2023-05-09T07:30:11.847Z,21.48
2023-05-09T07:32:13.464Z,21.65
2023-05-09T07:34:16.579Z,21.78
2023-05-09T07:36:18.216Z,21.93
2023-05-09T07:38:19.915Z,22.07
2023-05-09T07:40:21.300Z,22.22
2023-05-09T07:42:23.114Z,22.36
2023-05-09T07:44:24.711Z,22.52
2023-05-09T07:46:29.415Z,22.68
2023-05-09T07:48:33.694Z,22.83
2023-05-09T07:50:35.191Z,22.99
2023-05-09T07:52:39.667Z,23.13
2023-05-09T07:54:41.308Z,23.28
2023-05-09T07:56:43.007Z,23.43
2023-05-09T07:58:44.707Z,23.57
2023-05-09T08:00:46.161Z,23.74
2023-05-09T08:02:48.004Z,23.89
2023-05-09T08:04:49.569Z,24.03
2023-05-09T08:06:51.246Z,24.20
2023-05-09T08:08:52.963Z,24.34
2023-05-09T08:10:54.580Z,24.47
2023-05-09T08:12:56.818Z,24.60
2023-05-09T08:15:01.408Z,24.74
2023-05-09T08:17:05.139Z,24.87
2023-05-09T08:19:06.623Z,24.99
2023-05-09T08:21:10.873Z,25.11
2023-05-09T08:23:12.421Z,25.23
2023-05-09T08:25:16.745Z,25.34
2023-05-09T08:27:20.702Z,25.48
2023-05-09T08:29:22.226Z,25.60
2023-05-09T08:31:27.226Z,25.73
2023-05-09T08:33:28.684Z,25.86
2023-05-09T08:35:30.322Z,25.99
2023-05-09T08:37:32.384Z,26.10
2023-05-09T08:39:37.461Z,26.24
2023-05-09T08:41:39.626Z,26.36
2023-05-09T08:43:41.801Z,26.49
2023-05-09T08:45:50.118Z,26.61
2023-05-09T08:47:55.924Z,26.72
2023-05-09T08:49:57.670Z,26.85
2023-05-09T08:52:05.207Z,26.97
2023-05-09T08:54:11.222Z,27.08
2023-05-09T08:56:13.050Z,27.22
2023-05-09T08:58:19.591Z,27.32
2023-05-09T09:00:21.811Z,27.42
2023-05-09T09:02:23.534Z,27.53
2023-05-09T09:04:24.973Z,27.65
2023-05-09T09:06:29.858Z,27.77
2023-05-09T09:08:31.524Z,27.87
2023-05-09T09:10:34.419Z,27.95
2023-05-09T09:12:37.467Z,28.05
2023-05-09T09:14:46.343Z,28.16
2023-05-09T09:16:49.870Z,28.27
2023-05-09T09:18:58.504Z,28.38
2023-05-09T09:21:06.810Z,28.50
2023-05-09T09:23:12.388Z,28.61
2023-05-09T09:25:13.906Z,28.70
2023-05-09T09:27:18.912Z,28.81
2023-05-09T09:29:21.173Z,28.90
2023-05-09T09:31:30.290Z,28.99
2023-05-09T09:33:32.065Z,29.10
2023-05-09T09:35:39.141Z,29.18
2023-05-09T09:37:42.747Z,29.27
2023-05-09T09:39:57.838Z,29.36
2023-05-09T09:42:10.420Z,29.45
2023-05-09T09:44:17.446Z,29.53
2023-05-09T09:46:19.441Z,29.60
2023-05-09T09:48:25.682Z,29.66
2023-05-09T09:50:27.370Z,29.71
2023-05-09T09:52:28.877Z,29.75
2023-05-09T09:54:33.875Z,29.80
2023-05-09T09:56:42.905Z,29.82
2023-05-09T09:58:47.581Z,29.87
2023-05-09T10:01:05.046Z,29.91
2023-05-09T10:03:14.540Z,29.96
2023-05-09T10:05:28.071Z,30.00
2023-05-09T10:07:33.987Z,30.05
2023-05-09T10:09:37.956Z,30.12
2023-05-09T10:11:48.814Z,30.16
2023-05-09T10:13:50.615Z,30.23
2023-05-09T10:15:54.152Z,30.28
2023-05-09T10:18:01.693Z,30.35
2023-05-09T10:20:05.971Z,30.41
2023-05-09T10:22:12.854Z,30.48
2023-05-09T10:24:16.492Z,30.54
2023-05-09T10:26:27.704Z,30.61
2023-05-09T10:28:32.729Z,30.70
2023-05-09T10:30:40.418Z,30.73
2023-05-09T10:32:48.467Z,30.78
2023-05-09T10:34:54.808Z,30.84
2023-05-09T10:36:57.893Z,30.89
2023-05-09T10:39:01.150Z,30.95
2023-05-09T10:41:08.914Z,31.01
2023-05-09T10:43:10.708Z,31.09
2023-05-09T10:45:13.398Z,31.16
2023-05-09T10:47:15.912Z,31.23
2023-05-09T10:49:20.956Z,31.29
2023-05-09T10:51:24.592Z,31.34
2023-05-09T10:53:46.018Z,31.38
2023-05-09T10:55:55.509Z,31.44
2023-05-09T10:58:07.192Z,31.49
2023-05-09T11:00:10.205Z,31.53
2023-05-09T11:02:14.745Z,31.55
2023-05-09T11:04:17.356Z,31.55
2023-05-09T11:06:52.158Z,31.52
2023-05-09T11:08:54.200Z,31.53
2023-05-09T11:10:57.292Z,31.53
2023-05-09T11:13:02.407Z,31.54
2023-05-09T11:15:07.959Z,31.55
2023-05-09T11:17:28.907Z,31.57
2023-05-09T11:19:38.203Z,31.58
2023-05-09T11:21:59.959Z,31.58
2023-05-09T11:24:16.413Z,31.57
2023-05-09T11:26:22.491Z,31.60
2023-05-09T11:28:29.323Z,31.60
2023-05-09T11:30:40.750Z,31.62
2023-05-09T11:32:51.068Z,31.66
2023-05-09T11:34:52.887Z,31.70
2023-05-09T11:37:09.520Z,31.73
2023-05-09T11:39:11.578Z,31.75
2023-05-09T11:41:13.670Z,31.80
2023-05-09T11:43:17.180Z,31.84
2023-05-09T11:45:19.149Z,31.88
2023-05-09T11:47:23.850Z,31.91
2023-05-09T11:49:28.234Z,31.94
2023-05-09T11:51:29.884Z,31.95
2023-05-09T11:53:34.006Z,31.95
2023-05-09T11:55:38.013Z,31.94
2023-05-09T11:57:45.309Z,31.93
2023-05-09T11:59:48.443Z,31.90
2023-05-09T12:01:49.870Z,31.89
2023-05-09T12:03:51.849Z,31.90
2023-05-09T12:05:55.144Z,31.88
2023-05-09T12:08:02.609Z,31.87
2023-05-09T12:10:13.198Z,31.86
2023-05-09T12:12:14.962Z,31.85
2023-05-09T12:14:37.011Z,31.82
2023-05-09T12:16:45.347Z,31.80
2023-05-09T12:18:51.567Z,31.81
2023-05-09T12:20:53.819Z,31.82
2023-05-09T12:22:57.054Z,31.80
2023-05-09T12:25:04.063Z,31.78
2023-05-09T12:27:09.771Z,31.80
2023-05-09T12:29:11.577Z,31.77
2023-05-09T12:31:13.419Z,31.76
2023-05-09T12:33:18.196Z,31.73
2023-05-09T12:35:22.232Z,31.72
2023-05-09T12:37:23.731Z,31.70
2023-05-09T12:39:26.637Z,31.70
2023-05-09T12:41:39.138Z,31.69
2023-05-09T12:43:48.261Z,31.69
2023-05-09T12:46:20.824Z,31.67
2023-05-09T12:48:26.307Z,31.67
2023-05-09T12:50:36.768Z,31.67
2023-05-09T12:52:50.717Z,31.69
2023-05-09T12:55:16.268Z,31.67
2023-05-09T12:57:28.875Z,31.68
2023-05-09T12:59:33.360Z,31.68
2023-05-09T13:01:44.078Z,31.66
2023-05-09T13:03:51.628Z,31.65
2023-05-09T13:06:01.195Z,31.66
2023-05-09T13:08:02.876Z,31.63
2023-05-09T13:10:13.888Z,31.59
2023-05-09T13:12:20.537Z,31.58
2023-05-09T13:14:24.034Z,31.54
2023-05-09T13:16:25.528Z,31.51
2023-05-09T13:18:30.106Z,31.48
2023-05-09T13:20:31.722Z,31.46
2023-05-09T13:22:33.463Z,31.41
2023-05-09T13:24:35.003Z,31.38
2023-05-09T13:26:36.722Z,31.37
2023-05-09T13:28:39.218Z,31.35
2023-05-09T13:30:48.195Z,31.33
2023-05-09T13:32:51.356Z,31.30
2023-05-09T13:34:53.322Z,31.29
2023-05-09T13:36:57.806Z,31.27
2023-05-09T13:38:59.287Z,31.27
2023-05-09T13:41:03.906Z,31.25
2023-05-09T13:43:05.901Z,31.23
2023-05-09T13:45:08.487Z,31.19
2023-05-09T13:47:11.455Z,31.16
2023-05-09T13:49:13.229Z,31.13
2023-05-09T13:51:15.381Z,31.12
2023-05-09T13:53:17.229Z,31.08
2023-05-09T13:55:21.847Z,31.06
2023-05-09T13:57:23.352Z,31.05
2023-05-09T13:59:24.958Z,31.04
2023-05-09T14:01:26.580Z,31.03
2023-05-09T14:03:31.994Z,31.00
2023-05-09T14:05:34.177Z,30.97
2023-05-09T14:07:36.047Z,30.95
2023-05-09T14:09:40.007Z,30.91
2023-05-09T14:11:42.834Z,30.85
2023-05-09T14:13:44.763Z,30.80
2023-05-09T14:15:46.418Z,30.76
2023-05-09T14:17:48.103Z,30.71
2023-05-09T14:19:50.895Z,30.65
2023-05-09T14:21:52.648Z,30.60
2023-05-09T14:23:54.536Z,30.53
2023-05-09T14:25:56.310Z,30.48
2023-05-09T14:27:59.413Z,30.41
2023-05-09T14:30:01.124Z,30.35
2023-05-09T14:32:02.754Z,30.37
2023-05-09T14:34:05.293Z,30.26
2023-05-09T14:36:07.573Z,30.15
2023-05-09T14:38:09.086Z,30.04
2023-05-09T14:40:10.831Z,29.94
2023-05-09T14:42:13.996Z,29.86
2023-05-09T14:44:17.282Z,29.77
2023-05-09T14:46:18.983Z,29.67
2023-05-09T14:48:20.499Z,29.61
2023-05-09T14:50:22.269Z,29.52
2023-05-09T14:52:23.979Z,29.45
2023-05-09T14:54:26.032Z,29.39
2023-05-09T14:56:31.153Z,29.29
2023-05-09T14:58:34.340Z,29.20
2023-05-09T15:00:39.392Z,29.13
2023-05-09T15:02:42.027Z,29.06
2023-05-09T15:04:44.985Z,29.12
2023-05-09T15:06:46.724Z,29.02
2023-05-09T15:08:51.190Z,28.94
2023-05-09T15:10:53.230Z,28.85
2023-05-09T15:12:55.380Z,28.76
2023-05-09T15:15:13.030Z,28.68
2023-05-09T15:17:14.696Z,28.62
2023-05-09T15:19:16.219Z,28.62
2023-05-09T15:21:17.824Z,28.57
2023-05-09T15:23:19.433Z,28.48
2023-05-09T15:25:21.835Z,28.49
2023-05-09T15:27:23.308Z,28.44
2023-05-09T15:29:24.961Z,28.33
2023-05-09T15:31:26.572Z,28.26
2023-05-09T15:33:28.539Z,28.26
2023-05-09T15:35:30.093Z,28.28
2023-05-09T15:37:33.269Z,28.18
2023-05-09T15:39:36.268Z,28.07
2023-05-09T15:41:37.904Z,27.99
2023-05-09T15:43:39.427Z,27.93
2023-05-09T15:45:45.711Z,27.86
2023-05-09T15:47:47.654Z,27.78
2023-05-09T15:49:49.174Z,27.73
2023-05-09T15:51:50.661Z,27.72
2023-05-09T15:53:52.152Z,27.66
2023-05-09T15:55:56.998Z,27.63
2023-05-09T15:57:58.684Z,27.60
2023-05-09T16:00:00.395Z,27.56
2023-05-09T16:02:02.425Z,27.53
2023-05-09T16:04:05.268Z,27.52
2023-05-09T16:06:07.255Z,27.49
2023-05-09T16:08:08.726Z,27.48
2023-05-09T16:10:10.485Z,27.47
2023-05-09T16:12:12.729Z,27.45
2023-05-09T16:14:14.380Z,27.44
2023-05-09T16:16:18.780Z,27.40
2023-05-09T16:18:20.326Z,27.37
2023-05-09T16:20:21.871Z,27.33
2023-05-09T16:22:23.472Z,27.32
2023-05-09T16:24:25.235Z,27.31
2023-05-09T16:26:29.957Z,27.28
2023-05-09T16:28:31.865Z,27.26
2023-05-09T16:30:36.083Z,27.23
2023-05-09T16:32:39.430Z,27.19
2023-05-09T16:34:41.074Z,27.16
2023-05-09T16:36:44.086Z,27.12
2023-05-09T16:38:46.022Z,27.07
2023-05-09T16:40:49.917Z,27.04
2023-05-09T16:42:51.416Z,27.01
2023-05-09T16:44:52.908Z,26.97
2023-05-09T16:46:54.501Z,26.93
2023-05-09T16:48:58.409Z,26.87
2023-05-09T16:51:00.032Z,26.82
2023-05-09T16:53:02.004Z,26.78
2023-05-09T16:55:04.208Z,26.76
2023-05-09T16:57:05.879Z,26.71
2023-05-09T16:59:07.497Z,26.68
2023-05-09T17:01:09.548Z,26.64
2023-05-09T17:03:11.063Z,26.60
2023-05-09T17:05:12.652Z,26.56
2023-05-09T17:07:17.647Z,26.53
2023-05-09T17:09:19.345Z,26.48
2023-05-09T17:11:21.573Z,26.43
2023-05-09T17:13:23.344Z,26.40
2023-05-09T17:15:28.062Z,26.38
2023-05-09T17:17:29.521Z,26.32
2023-05-09T17:19:32.626Z,26.30
2023-05-09T17:21:39.788Z,26.28
2023-05-09T17:23:41.492Z,26.24
2023-05-09T17:25:43.511Z,26.21
2023-05-09T17:27:45.430Z,26.19
2023-05-09T17:30:02.237Z,26.15
2023-05-09T17:32:06.229Z,26.13
2023-05-09T17:34:07.735Z,26.10
2023-05-09T17:36:09.478Z,26.06
2023-05-09T17:38:11.100Z,26.04
2023-05-09T17:40:14.491Z,25.99
2023-05-09T17:42:19.172Z,25.98
2023-05-09T17:44:21.124Z,25.96
2023-05-09T17:46:27.642Z,25.92
2023-05-09T17:48:29.257Z,25.90
2023-05-09T17:50:31.288Z,25.86
2023-05-09T17:52:33.688Z,25.83
2023-05-09T17:54:36.640Z,25.79
2023-05-09T17:56:38.150Z,25.76
2023-05-09T17:58:39.851Z,25.71
2023-05-09T18:00:41.652Z,25.69
2023-05-09T18:02:43.725Z,25.67
2023-05-09T18:04:46.312Z,25.68
2023-05-09T18:06:49.887Z,25.85
2023-05-09T18:08:51.736Z,25.83
2023-05-09T18:10:56.568Z,25.83
2023-05-09T18:12:58.160Z,25.80
2023-05-09T18:14:59.973Z,25.79
2023-05-09T18:17:01.691Z,25.76
2023-05-09T18:19:03.218Z,25.74
2023-05-09T18:21:05.395Z,25.73
2023-05-09T18:23:07.749Z,25.72
2023-05-09T18:25:09.852Z,25.69
2023-05-09T18:27:11.822Z,25.68
2023-05-09T18:29:18.509Z,25.64
2023-05-09T18:31:20.100Z,25.60
2023-05-09T18:33:26.626Z,25.58
2023-05-09T18:35:28.580Z,25.55
2023-05-09T18:37:32.517Z,25.50
2023-05-09T18:39:34.040Z,25.48
2023-05-09T18:41:35.646Z,25.43
2023-05-09T18:43:42.018Z,25.39
2023-05-09T18:45:44.970Z,25.34
2023-05-09T18:47:47.581Z,25.31
2023-05-09T18:49:49.474Z,25.28
2023-05-09T18:51:51.200Z,25.23
2023-05-09T18:53:53.409Z,25.16
2023-05-09T18:55:56.389Z,25.13
2023-05-09T18:57:58.345Z,25.08
2023-05-09T18:59:59.892Z,25.02
2023-05-09T19:02:04.517Z,24.96
2023-05-09T19:04:06.992Z,24.91
2023-05-09T19:06:10.551Z,24.86
2023-05-09T19:08:11.970Z,24.79
2023-05-09T19:10:14.846Z,24.70
2023-05-09T19:12:19.590Z,24.65
2023-05-09T19:14:22.335Z,24.60
2023-05-09T19:16:24.904Z,24.55
2023-05-09T19:18:26.831Z,24.49
2023-05-09T19:20:29.990Z,24.45
2023-05-09T19:22:45.403Z,24.40
2023-05-09T19:24:47.432Z,24.34
2023-05-09T19:26:49.682Z,24.30
2023-05-09T19:28:51.215Z,24.25
2023-05-09T19:30:52.784Z,24.22
2023-05-09T19:32:54.588Z,24.18
2023-05-09T19:34:58.853Z,24.14
2023-05-09T19:37:00.651Z,24.08
2023-05-09T19:39:04.715Z,24.03
2023-05-09T19:41:06.294Z,24.00
2023-05-09T19:43:07.828Z,23.97
2023-05-09T19:45:09.761Z,23.93
2023-05-09T19:47:11.293Z,23.89
2023-05-09T19:49:17.154Z,23.84
2023-05-09T19:51:19.342Z,23.81
2023-05-09T19:53:20.835Z,23.77
2023-05-09T19:55:22.321Z,23.71
2023-05-09T19:57:23.801Z,23.67
2023-05-09T19:59:29.102Z,23.62
2023-05-09T20:01:30.712Z,23.60
2023-05-09T20:03:34.554Z,23.55
2023-05-09T20:05:36.246Z,23.51
2023-05-09T20:07:37.951Z,23.49
2023-05-09T20:09:39.674Z,23.36
2023-05-09T20:11:41.320Z,23.29
2023-05-09T20:13:45.103Z,23.21
2023-05-09T20:15:47.307Z,23.19
2023-05-09T20:17:49.029Z,23.16
2023-05-09T20:19:50.734Z,23.11
2023-05-09T20:21:52.376Z,23.08
2023-05-09T20:23:57.033Z,23.05
2023-05-09T20:25:58.946Z,23.03
2023-05-09T20:28:00.779Z,22.99
2023-05-09T20:30:04.110Z,22.98
2023-05-09T20:32:05.980Z,22.94
2023-05-09T20:34:10.601Z,22.90
2023-05-09T20:36:12.052Z,22.85
2023-05-09T20:38:13.518Z,22.83
2023-05-09T20:40:15.219Z,22.80
2023-05-09T20:42:17.407Z,22.75
2023-05-09T20:44:19.314Z,22.73
2023-05-09T20:46:20.821Z,22.68
2023-05-09T20:48:23.527Z,22.66
2023-05-09T20:50:25.334Z,22.62
2023-05-09T20:52:29.048Z,22.56
2023-05-09T20:54:31.006Z,22.55
2023-05-09T20:56:35.153Z,22.51
2023-05-09T20:58:39.405Z,22.47
2023-05-09T21:00:42.795Z,22.44
2023-05-09T21:02:44.538Z,22.40
2023-05-09T21:04:46.152Z,22.38
2023-05-09T21:06:47.885Z,22.34
2023-05-09T21:08:49.332Z,22.31
2023-05-09T21:10:53.925Z,22.28
2023-05-09T21:12:59.257Z,22.25
2023-05-09T21:15:05.673Z,22.20
2023-05-09T21:17:07.310Z,22.18
2023-05-09T21:19:08.898Z,22.14
2023-05-09T21:21:10.654Z,22.12
2023-05-09T21:23:12.195Z,22.10
2023-05-09T21:25:13.805Z,22.07
2023-05-09T21:27:15.529Z,22.05
2023-05-09T21:29:17.009Z,22.03
2023-05-09T21:31:18.582Z,22.01
2023-05-09T21:33:20.685Z,22.01
2023-05-09T21:35:22.316Z,22.00
2023-05-09T21:37:23.867Z,21.99
2023-05-09T21:39:25.689Z,21.97
2023-05-09T21:41:32.323Z,21.98
2023-05-09T21:43:33.802Z,21.96
2023-05-09T21:45:35.308Z,21.96
2023-05-09T21:47:41.749Z,21.95
2023-05-09T21:49:43.303Z,21.93
2023-05-09T21:51:44.890Z,21.93
2023-05-09T21:53:46.426Z,21.93
2023-05-09T21:55:48.056Z,21.91
2023-05-09T21:57:49.723Z,21.90
2023-05-09T21:59:51.393Z,21.87
2023-05-09T22:01:52.984Z,21.86
2023-05-09T22:03:56.804Z,21.84
2023-05-09T22:05:58.348Z,21.84
2023-05-09T22:07:59.928Z,21.81
2023-05-09T22:10:01.579Z,21.80
2023-05-09T22:12:03.207Z,21.79
2023-05-09T22:14:10.122Z,21.76
2023-05-09T22:16:11.799Z,21.73
2023-05-09T22:18:14.696Z,21.72
2023-05-09T22:20:18.541Z,21.71
2023-05-09T22:22:21.258Z,21.70
2023-05-09T22:24:22.687Z,21.65
2023-05-09T22:26:24.258Z,21.64
2023-05-09T22:28:25.861Z,21.61
2023-05-09T22:30:27.767Z,21.59
2023-05-09T22:32:29.448Z,21.58
2023-05-09T22:34:31.099Z,21.55
2023-05-09T22:36:33.298Z,21.55
2023-05-09T22:38:35.009Z,21.54
2023-05-09T22:40:42.011Z,21.49
2023-05-09T22:42:43.996Z,21.48
2023-05-09T22:44:47.131Z,21.47
2023-05-09T22:46:48.664Z,21.46
2023-05-09T22:48:50.183Z,21.44
2023-05-09T22:50:51.961Z,21.41
2023-05-09T22:52:53.450Z,21.39
2023-05-09T22:54:54.951Z,21.37
2023-05-09T22:56:56.428Z,21.35
2023-05-09T22:59:01.431Z,21.34
2023-05-09T23:01:02.952Z,21.32
2023-05-09T23:03:05.162Z,21.30
2023-05-09T23:05:08.664Z,21.29
2023-05-09T23:07:12.703Z,21.26
2023-05-09T23:09:14.381Z,21.25
2023-05-09T23:11:15.862Z,21.21
2023-05-09T23:13:17.671Z,21.22
2023-05-09T23:15:19.228Z,21.21
2023-05-09T23:17:21.296Z,21.21
2023-05-09T23:19:22.977Z,21.19
2023-05-09T23:21:24.485Z,21.16
2023-05-09T23:23:26.138Z,21.17
2023-05-09T23:25:27.576Z,21.16
2023-05-09T23:27:31.151Z,21.16
2023-05-09T23:29:33.170Z,21.15
2023-05-09T23:31:34.858Z,21.13
2023-05-09T23:33:36.432Z,21.12
2023-05-09T23:35:37.817Z,21.10
2023-05-09T23:37:39.279Z,21.09
2023-05-09T23:39:43.152Z,21.08
2023-05-09T23:41:44.696Z,21.07
2023-05-09T23:43:46.187Z,21.06
2023-05-09T23:45:47.676Z,21.06
2023-05-09T23:47:49.363Z,21.04
2023-05-09T23:49:50.967Z,21.04
2023-05-09T23:51:52.554Z,21.03
2023-05-09T23:53:54.128Z,21.03
2023-05-09T23:55:55.626Z,20.99
2023-05-09T23:57:57.667Z,21.00
